createdAt,value
2022-08-09T00:01:54.131Z,96.63
2022-08-09T00:05:02.947Z,96.20
2022-08-09T00:08:31.824Z,97.32
2022-08-09T00:12:03.920Z,96.94
2022-08-09T00:15:06.771Z,97.27
2022-08-09T00:18:11.478Z,97.14
2022-08-09T00:21:15.260Z,97.44
2022-08-09T00:24:19.782Z,98.55
2022-08-09T00:27:22.585Z,97.00
2022-08-09T00:30:27.016Z,96.82
2022-08-09T00:33:32.679Z,96.53
2022-08-09T00:36:52.240Z,96.67
2022-08-09T00:40:12.955Z,96.18
2022-08-09T00:44:13.996Z,95.60
2022-08-09T00:46:56.340Z,96.00
2022-08-09T00:50:04.809Z,99.06
2022-08-09T00:53:10.127Z,99.62
2022-08-09T00:56:14.782Z,99.44
2022-08-09T00:59:31.646Z,98.65
2022-08-09T01:02:50.234Z,98.35
2022-08-09T01:06:22.229Z,96.43
2022-08-09T01:09:44.303Z,96.19
2022-08-09T01:13:04.611Z,96.65
2022-08-09T01:16:12.916Z,96.42
2022-08-09T01:19:43.044Z,96.11
2022-08-09T01:24:02.478Z,95.91
2022-08-09T01:26:57.656Z,96.52
2022-08-09T01:30:08.425Z,95.86
2022-08-09T01:33:38.538Z,96.39
2022-08-09T01:36:43.293Z,96.89
2022-08-09T01:39:50.668Z,97.91
2022-08-09T01:42:57.029Z,98.24
2022-08-09T01:46:00.735Z,98.62
2022-08-09T01:49:24.103Z,97.58
2022-08-09T01:52:27.782Z,98.57
2022-08-09T01:55:35.722Z,99.26
2022-08-09T01:58:43.751Z,99.00
2022-08-09T02:01:58.497Z,99.52
2022-08-09T02:05:15.901Z,99.29
2022-08-09T02:08:40.609Z,99.19
2022-08-09T02:11:45.234Z,99.71
2022-08-09T02:14:52.060Z,99.11
2022-08-09T02:18:01.445Z,99.55
2022-08-09T02:21:22.090Z,99.96
2022-08-09T02:24:35.367Z,98.24
2022-08-09T02:27:57.835Z,98.69
2022-08-09T02:31:31.440Z,98.61
2022-08-09T02:34:51.815Z,98.74
2022-08-09T02:38:00.597Z,99.96
2022-08-09T02:41:11.723Z,99.56
2022-08-09T02:44:29.040Z,99.33
2022-08-09T02:47:58.121Z,99.61
2022-08-09T02:51:02.582Z,99.56
2022-08-09T02:54:07.166Z,100.00
2022-08-09T02:57:13.671Z,100.00
2022-08-09T03:00:27.085Z,100.00
2022-08-09T03:04:12.928Z,100.00
2022-08-09T03:06:56.358Z,100.00
2022-08-09T03:10:04.020Z,100.00
2022-08-09T03:13:08.316Z,100.00
2022-08-09T03:16:20.671Z,100.00
2022-08-09T03:19:59.278Z,100.00
2022-08-09T03:22:56.818Z,100.00
2022-08-09T03:26:05.093Z,100.00
2022-08-09T03:29:09.632Z,100.00
2022-08-09T03:32:17.357Z,100.00
2022-08-09T03:35:44.370Z,100.00
2022-08-09T03:38:46.094Z,100.00
2022-08-09T03:41:49.100Z,100.00
2022-08-09T03:45:09.004Z,100.00
2022-08-09T03:48:11.916Z,100.00
2022-08-09T03:51:56.613Z,100.00
2022-08-09T03:54:48.889Z,100.00
2022-08-09T03:58:03.327Z,100.00
2022-08-09T04:01:13.284Z,100.00
2022-08-09T04:04:17.477Z,100.00
2022-08-09T04:07:20.561Z,100.00
2022-08-09T04:10:29.027Z,100.00
2022-08-09T04:14:36.570Z,100.00
2022-08-09T04:16:57.426Z,100.00
2022-08-09T04:20:02.644Z,100.00
2022-08-09T04:23:10.007Z,100.00
2022-08-09T04:26:19.637Z,100.00
2022-08-09T04:29:26.248Z,100.00
2022-08-09T04:32:37.008Z,100.00
2022-08-09T04:35:42.475Z,100.00
2022-08-09T04:38:45.198Z,100.00
2022-08-09T04:41:48.146Z,99.94
2022-08-09T04:44:50.766Z,99.96
2022-08-09T04:48:01.204Z,99.76
2022-08-09T04:51:05.706Z,100.00
2022-08-09T04:54:08.654Z,98.42
2022-08-09T04:57:12.941Z,98.30
2022-08-09T05:00:16.991Z,97.22
2022-08-09T05:03:42.655Z,96.65
2022-08-09T05:06:44.200Z,93.73
2022-08-09T05:09:49.912Z,94.40
2022-08-09T05:12:53.188Z,94.56
2022-08-09T05:15:56.510Z,94.86
2022-08-09T05:19:00.635Z,94.73
2022-08-09T05:22:05.436Z,94.05
2022-08-09T05:25:32.649Z,92.07
2022-08-09T05:28:35.465Z,89.96
2022-08-09T05:31:46.397Z,91.29
2022-08-09T05:34:51.783Z,89.86
2022-08-09T05:37:55.836Z,89.67
2022-08-09T05:40:58.787Z,88.56
2022-08-09T05:44:01.639Z,87.46
2022-08-09T05:47:05.572Z,86.88
2022-08-09T05:50:30.611Z,85.80
2022-08-09T05:53:34.016Z,86.30
2022-08-09T05:56:39.035Z,84.31
2022-08-09T05:59:58.183Z,83.42
2022-08-09T06:03:03.634Z,83.53
2022-08-09T06:06:06.881Z,81.81
2022-08-09T06:09:40.659Z,81.65
2022-08-09T06:12:33.083Z,81.42
2022-08-09T06:15:36.608Z,80.30
2022-08-09T06:18:39.441Z,78.08
2022-08-09T06:21:51.500Z,77.94
2022-08-09T06:25:01.109Z,76.60
2022-08-09T06:28:04.039Z,76.18
2022-08-09T06:31:08.070Z,75.57
2022-08-09T06:34:10.595Z,74.65
2022-08-09T06:37:13.451Z,72.61
2022-08-09T06:40:21.738Z,72.98
2022-08-09T06:43:27.227Z,72.25
2022-08-09T06:46:40.564Z,71.13
2022-08-09T06:50:11.998Z,68.87
2022-08-09T06:53:06.989Z,68.29
2022-08-09T06:56:09.787Z,66.46
2022-08-09T07:00:49.220Z,65.56
2022-08-09T07:02:36.720Z,64.35
2022-08-09T07:06:03.111Z,63.30
2022-08-09T07:09:04.580Z,64.92
2022-08-09T07:12:07.211Z,63.16
2022-08-09T07:16:36.090Z,61.99
2022-08-09T07:18:39.301Z,61.27
2022-08-09T07:21:43.403Z,58.67
2022-08-09T07:24:58.768Z,57.53
2022-08-09T07:28:04.302Z,59.25
2022-08-09T07:31:07.086Z,57.85
2022-08-09T07:34:10.013Z,56.81
2022-08-09T07:37:23.458Z,53.48
2022-08-09T07:40:37.217Z,52.39
2022-08-09T07:43:56.264Z,48.15
2022-08-09T07:46:59.549Z,46.92
2022-08-09T07:50:08.619Z,44.44
2022-08-09T07:53:12.515Z,42.85
2022-08-09T07:56:27.143Z,40.71
2022-08-09T07:59:34.439Z,45.54
2022-08-09T08:02:48.760Z,44.69
2022-08-09T08:05:58.219Z,46.65
2022-08-09T08:09:07.507Z,43.07
2022-08-09T08:12:36.468Z,41.70
2022-08-09T08:15:37.666Z,41.53
2022-08-09T08:18:43.237Z,40.89
2022-08-09T08:21:52.564Z,43.43
2022-08-09T08:24:57.451Z,41.79
2022-08-09T08:28:00.160Z,41.06
2022-08-09T08:31:14.243Z,39.53
2022-08-09T08:34:25.432Z,41.62
2022-08-09T08:37:41.913Z,39.57
2022-08-09T08:40:55.611Z,40.40
2022-08-09T08:44:02.542Z,37.18
2022-08-09T08:47:12.349Z,42.63
2022-08-09T08:50:18.211Z,41.06
2022-08-09T08:53:22.331Z,37.22
2022-08-09T08:56:28.192Z,40.97
2022-08-09T08:59:46.815Z,40.97
2022-08-09T09:02:53.552Z,36.46
2022-08-09T09:06:05.038Z,34.20
2022-08-09T09:09:41.209Z,33.30
2022-08-09T09:12:35.415Z,35.24
2022-08-09T09:15:38.857Z,36.69
2022-08-09T09:18:48.151Z,34.37
2022-08-09T09:22:11.300Z,35.94
2022-08-09T09:26:00.963Z,34.18
2022-08-09T09:29:03.965Z,33.54
2022-08-09T09:32:20.237Z,35.52
2022-08-09T09:36:02.577Z,31.63
2022-08-09T09:39:10.003Z,33.56
2022-08-09T09:42:24.680Z,33.73
2022-08-09T09:45:29.539Z,33.14
2022-08-09T09:48:35.135Z,33.35
2022-08-09T09:51:40.259Z,32.60
2022-08-09T09:54:55.673Z,33.86
2022-08-09T09:58:15.534Z,33.29
2022-08-09T10:01:31.373Z,29.47
2022-08-09T10:04:42.295Z,32.24
2022-08-09T10:08:10.919Z,31.46
2022-08-09T10:11:54.298Z,32.04
2022-08-09T10:14:48.213Z,32.16
2022-08-09T10:17:56.242Z,29.71
2022-08-09T10:21:09.839Z,34.07
2022-08-09T10:24:16.109Z,30.74
2022-08-09T10:27:34.789Z,29.05
2022-08-09T10:34:18.925Z,28.86
2022-08-09T10:37:28.409Z,29.41
2022-08-09T10:40:41.116Z,26.27
2022-08-09T10:44:00.000Z,28.48
2022-08-09T10:48:12.703Z,27.94
2022-08-09T10:51:09.666Z,25.74
2022-08-09T10:54:13.839Z,27.58
2022-08-09T10:57:17.035Z,30.01
2022-08-09T11:00:28.839Z,26.74
2022-08-09T11:03:50.098Z,28.44
2022-08-09T11:07:03.724Z,32.05
2022-08-09T11:10:07.630Z,32.23
2022-08-09T11:13:49.093Z,34.16
2022-08-09T11:16:42.962Z,32.57
2022-08-09T11:20:20.495Z,31.28
2022-08-09T11:23:29.920Z,31.86
2022-08-09T11:26:40.824Z,29.38
2022-08-09T11:30:04.721Z,26.99
2022-08-09T11:33:19.181Z,26.69
2022-08-09T11:36:35.575Z,30.59
2022-08-09T11:40:06.385Z,27.73
2022-08-09T11:43:14.548Z,24.85
2022-08-09T11:46:18.647Z,27.24
2022-08-09T11:50:56.530Z,28.13
2022-08-09T11:53:58.363Z,22.35
2022-08-09T11:56:48.501Z,25.71
2022-08-09T11:59:52.226Z,26.14
2022-08-09T12:02:57.751Z,28.41
2022-08-09T12:06:08.671Z,30.06
2022-08-09T12:09:17.567Z,31.34
2022-08-09T12:12:29.204Z,31.58
2022-08-09T12:15:50.374Z,31.69
2022-08-09T12:18:55.637Z,34.90
2022-08-09T12:22:04.159Z,33.86
2022-08-09T12:25:15.586Z,36.04
2022-08-09T12:29:11.995Z,35.63
2022-08-09T12:32:02.198Z,35.92
2022-08-09T12:35:11.037Z,32.41
2022-08-09T12:38:29.810Z,32.66
2022-08-09T12:41:40.972Z,33.58
2022-08-09T12:44:52.464Z,33.20
2022-08-09T12:47:57.483Z,35.82
2022-08-09T12:51:04.028Z,35.35
2022-08-09T12:54:07.703Z,35.26
2022-08-09T12:57:10.815Z,33.05
2022-08-09T13:00:34.434Z,28.27
2022-08-09T13:03:53.607Z,27.37
2022-08-09T13:07:19.628Z,32.74
2022-08-09T13:10:23.472Z,35.25
2022-08-09T13:14:11.932Z,35.38
2022-08-09T13:17:08.493Z,36.12
2022-08-09T13:20:18.674Z,37.70
2022-08-09T13:24:16.340Z,37.47
2022-08-09T13:27:06.014Z,38.09
2022-08-09T13:30:51.255Z,38.52
2022-08-09T13:33:53.775Z,38.90
2022-08-09T13:36:59.328Z,38.56
2022-08-09T13:41:50.597Z,38.29
2022-08-09T13:43:35.957Z,38.11
2022-08-09T13:47:17.762Z,38.39
2022-08-09T13:50:12.667Z,37.93
2022-08-09T13:53:21.060Z,37.16
2022-08-09T13:56:42.706Z,37.71
2022-08-09T13:59:52.986Z,36.48
2022-08-09T14:03:03.061Z,36.31
2022-08-09T14:06:26.443Z,35.99
2022-08-09T14:09:30.337Z,37.11
2022-08-09T14:12:37.903Z,37.88
2022-08-09T14:16:09.105Z,37.71
2022-08-09T14:19:07.090Z,38.48
2022-08-09T14:22:10.158Z,38.30
2022-08-09T14:25:13.128Z,37.65
2022-08-09T14:28:15.784Z,38.97
2022-08-09T14:31:23.764Z,38.00
2022-08-09T14:34:46.273Z,37.07
2022-08-09T14:38:03.009Z,35.47
2022-08-09T14:41:34.630Z,33.91
2022-08-09T14:44:32.621Z,34.29
2022-08-09T14:47:57.508Z,35.73
2022-08-09T14:51:02.485Z,35.50
2022-08-09T14:54:09.547Z,35.85
2022-08-09T14:57:12.457Z,35.92
2022-08-09T15:00:15.196Z,36.29
2022-08-09T15:03:20.013Z,35.48
2022-08-09T15:06:23.104Z,33.70
2022-08-09T15:10:04.538Z,34.74
2022-08-09T15:12:54.124Z,35.16
2022-08-09T15:15:57.195Z,36.17
2022-08-09T15:19:02.469Z,37.34
2022-08-09T15:22:18.749Z,37.72
2022-08-09T15:25:33.552Z,38.01
2022-08-09T15:28:44.252Z,38.21
2022-08-09T15:31:57.938Z,36.60
2022-08-09T15:35:01.053Z,37.69
2022-08-09T15:38:11.672Z,37.97
2022-08-09T15:41:22.297Z,38.32
2022-08-09T15:44:25.065Z,38.56
2022-08-09T15:47:47.086Z,39.25
2022-08-09T15:50:50.733Z,39.61
2022-08-09T15:54:04.806Z,38.81
2022-08-09T15:57:10.788Z,38.42
2022-08-09T16:00:25.868Z,39.09
2022-08-09T16:03:38.776Z,38.81
2022-08-09T16:06:44.739Z,39.25
2022-08-09T16:10:04.267Z,38.87
2022-08-09T16:13:21.207Z,38.27
2022-08-09T16:16:31.706Z,38.71
2022-08-09T16:19:36.540Z,38.71
2022-08-09T16:22:42.353Z,39.04
2022-08-09T16:25:51.892Z,38.63
2022-08-09T16:29:11.331Z,38.67
2022-08-09T16:32:33.213Z,37.42
2022-08-09T16:35:56.150Z,37.58
2022-08-09T16:39:01.756Z,36.92
2022-08-09T16:42:07.259Z,36.68
2022-08-09T16:45:11.146Z,38.31
2022-08-09T16:48:41.610Z,39.70
2022-08-09T16:51:36.727Z,40.67
2022-08-09T16:54:42.080Z,40.94
2022-08-09T16:58:08.875Z,41.11
2022-08-09T17:01:08.353Z,41.78
2022-08-09T17:04:28.055Z,41.53
2022-08-09T17:08:47.088Z,41.64
2022-08-09T17:10:54.968Z,41.60
2022-08-09T17:14:01.294Z,42.18
2022-08-09T17:17:12.770Z,42.16
2022-08-09T17:20:37.441Z,42.12
2022-08-09T17:24:28.071Z,42.27
2022-08-09T17:27:06.665Z,42.15
2022-08-09T17:30:19.810Z,42.88
2022-08-09T17:33:23.589Z,42.66
2022-08-09T17:36:26.371Z,42.68
2022-08-09T17:39:48.306Z,43.18
2022-08-09T17:42:55.654Z,42.70
2022-08-09T17:46:06.931Z,42.60
2022-08-09T17:49:10.290Z,42.66
2022-08-09T17:52:20.670Z,42.84
2022-08-09T17:55:25.383Z,43.06
2022-08-09T17:58:48.435Z,43.05
2022-08-09T18:02:06.401Z,43.22
2022-08-09T18:05:14.192Z,43.44
2022-08-09T18:08:16.727Z,43.67
2022-08-09T18:11:20.741Z,43.80
2022-08-09T18:14:27.024Z,43.95
2022-08-09T18:18:02.601Z,44.96
2022-08-09T18:21:10.466Z,44.93
2022-08-09T18:24:16.879Z,44.81
2022-08-09T18:28:02.132Z,45.86
2022-08-09T18:30:49.448Z,45.78
2022-08-09T18:33:53.531Z,45.96
2022-08-09T18:36:56.948Z,45.43
2022-08-09T18:40:00.419Z,45.84
2022-08-09T18:43:03.801Z,44.85
2022-08-09T18:46:46.544Z,43.89
2022-08-09T18:49:31.923Z,43.29
2022-08-09T18:52:44.980Z,43.46
2022-08-09T18:56:05.021Z,41.79
2022-08-09T18:59:08.309Z,41.21
2022-08-09T19:02:12.054Z,41.64
2022-08-09T19:05:20.673Z,40.49
2022-08-09T19:08:41.266Z,41.24
2022-08-09T19:11:57.956Z,41.23
2022-08-09T19:15:00.911Z,40.39
2022-08-09T19:18:06.440Z,40.53
2022-08-09T19:21:21.634Z,40.65
2022-08-09T19:25:11.328Z,40.35
2022-08-09T19:28:06.568Z,40.94
2022-08-09T19:31:09.128Z,41.09
2022-08-09T19:34:21.798Z,40.78
2022-08-09T19:37:26.177Z,40.86
2022-08-09T19:40:33.225Z,40.79
2022-08-09T19:44:01.009Z,40.51
2022-08-09T19:47:00.195Z,40.76
2022-08-09T19:50:08.929Z,40.95
2022-08-09T19:53:26.447Z,40.25
2022-08-09T19:56:29.625Z,39.96
2022-08-09T19:59:58.270Z,40.12
2022-08-09T20:04:07.437Z,39.44
2022-08-09T20:06:31.253Z,38.95
2022-08-09T20:09:44.958Z,39.09
2022-08-09T20:12:49.105Z,38.59
2022-08-09T20:16:34.502Z,39.16
2022-08-09T20:19:42.420Z,38.90
2022-08-09T20:22:44.735Z,38.53
2022-08-09T20:25:52.539Z,38.56
2022-08-09T20:28:55.805Z,38.75
2022-08-09T20:32:30.891Z,38.20
2022-08-09T20:35:21.879Z,38.14
2022-08-09T20:38:34.003Z,38.32
2022-08-09T20:41:49.121Z,38.95
2022-08-09T20:45:04.518Z,38.90
2022-08-09T20:48:20.855Z,39.59
2022-08-09T20:51:25.056Z,39.61
2022-08-09T20:54:27.859Z,39.75
2022-08-09T20:57:32.521Z,39.96
2022-08-09T21:00:36.176Z,39.63
2022-08-09T21:04:07.906Z,40.10
2022-08-09T21:07:13.758Z,40.00
2022-08-09T21:10:17.739Z,40.49
2022-08-09T21:13:21.359Z,40.17
2022-08-09T21:16:28.256Z,40.28
2022-08-09T21:20:05.069Z,40.42
2022-08-09T21:22:56.016Z,39.93
2022-08-09T21:26:00.269Z,40.65
2022-08-09T21:29:12.035Z,40.32
2022-08-09T21:32:18.769Z,40.37
2022-08-09T21:35:22.051Z,40.64
2022-08-09T21:38:31.069Z,40.60
2022-08-09T21:42:05.479Z,41.12
2022-08-09T21:44:58.024Z,40.40
2022-08-09T21:48:00.849Z,41.34
2022-08-09T21:51:03.434Z,40.78
2022-08-09T21:54:06.295Z,40.91
2022-08-09T21:57:36.942Z,41.21
2022-08-09T22:00:35.902Z,40.56
2022-08-09T22:03:58.948Z,40.79
2022-08-09T22:07:02.086Z,40.63
2022-08-09T22:10:10.784Z,40.81
2022-08-09T22:13:13.857Z,40.86
2022-08-09T22:16:21.326Z,41.14
2022-08-09T22:19:59.103Z,41.17
2022-08-09T22:22:49.393Z,41.46
2022-08-09T22:26:07.033Z,41.66
2022-08-09T22:29:12.554Z,42.10
2022-08-09T22:32:29.688Z,42.59
2022-08-09T22:36:01.924Z,42.46
2022-08-09T22:38:56.886Z,42.63
2022-08-09T22:42:04.094Z,42.98
2022-08-09T22:48:10.777Z,43.13
2022-08-09T22:48:50.280Z,43.62
2022-08-09T22:51:56.980Z,44.02
2022-08-09T22:55:00.316Z,44.02
2022-08-09T22:58:04.965Z,44.43
2022-08-09T23:01:08.231Z,44.70
2022-08-09T23:04:10.755Z,45.51
2022-08-09T23:08:22.073Z,45.67
2022-08-09T23:10:54.615Z,46.09
2022-08-09T23:13:58.737Z,46.27
2022-08-09T23:17:01.279Z,46.48
2022-08-09T23:20:07.832Z,46.42
2022-08-09T23:23:10.896Z,46.41
2022-08-09T23:26:13.680Z,46.66
2022-08-09T23:29:17.741Z,47.11
2022-08-09T23:32:20.564Z,46.88
2022-08-09T23:35:23.595Z,47.06
2022-08-09T23:38:26.432Z,47.12
2022-08-09T23:41:29.748Z,47.30
2022-08-09T23:44:32.716Z,47.14
2022-08-09T23:47:35.203Z,47.41
2022-08-09T23:50:38.122Z,47.71
2022-08-09T23:53:40.663Z,47.98
2022-08-09T23:56:53.920Z,48.24
